Atmautluak, AK

12:06 AM AKST on December 26, 2014 (GMT -0900)
Nunapitchuk AP, Nunapitchuk, | Change Station
CLOSE
Current Station
Airport
Location: Nunapitchuk AP, Nunapitchuk,,
Elevation: 13 ft
Nearby Weather Stations

Elev 13 ft 60.91 °N, 162.44 °W | Updated 10 minutes ago

Overcast
Overcast
16 °F
Feels Like 6 °F
N
7
Wind Variable Wind from WNW

Today
High -- | Low -- °F
--% Chance of Precip.
Yesterday
High -- | Low -- °F
Precip. -- in
11:02 AM 4:40 PM
Waxing Crescent, 24% visible
Pressure 29.66 in
Visibility 10.0 miles
Clouds Overcast 1200 ft
Windchill 6 °F
Dew Point 14 °F
Humidity 92%
Rainfall 0.00 in
Snow Depth Not available.
UV 0 out of 12
Pollen Not available.
Air Quality Not available.
Flu Activity Not available.
METAR PPIT 260856Z AUTO 29006KT 10SM OVC012 M09/M10 A2965 RMK AO2 SNE0757 SLP042 60000 T10891100 400061089 51029 FZRANO

More Conditions Fewer Conditions

Pressure 29.66 in
Visibility 10.0 miles
Clouds Overcast 1200 ft
Windchill 6 °F
Dew Point 14 °F
Humidity 92%
Rainfall 0.00 in
Snow Depth Not available.
UV 0 out of 12
Pollen Not available.
Air Quality Not available.
Flu Activity Not available.
METAR PPIT 260856Z AUTO 29006KT 10SM OVC012 M09/M10 A2965 RMK AO2 SNE0757 SLP042 60000 T10891100 400061089 51029 FZRANO

More Conditions Fewer Conditions

10-Day Weather Forecast

Almanac

Astronomy

Dec. 26, 2014 Rise Set
Actual Time
Civil Twilight
Nautical Twilight
Astronomical Twilight
Moon
Length of Visible Light
Length of Day
Tomorrow will be .
, % of the Moon is Illuminated

Today's Extremes

State Highs State Lows

Community

WunderPhotos

Upload Photos

1,780,568 photos uploaded!

WunderBlogs® & News

Nearby

Air Quality

  Air Quality AQ Index Pollutant
Not available.

Snow Depth

Station Depth Elevation

Earthquake Activity

City Distance Mag. Time & Date
Minimum magnitude displayed is 2.5.

Coastal Water Temperatures

Place Temperature

Nearby Weather Stations